Latest Coastal Weather Observations for Croker Island Airport

IDD60701

Issued at 6:51 am CST Thursday 5 May 2016 (issued every 10 minutes, with the page automatically refreshed every 10 minutes)

About coastal observations | Map of coastal stations | Coastal observations for NT | Marine services | Other Formats
Station Details ID: 014308 Name: CROKER ISLAND AIRPORT Lat: -11.16 Lon: 132.48 Height: 9.2 m
Data from the previous 72 hours. | See also: Recent months at Croker Island Airport
Date/Time
CST
Temp

°C
Wind Pressure Rain
since 9am
mm
Weather Cloud Vis
km
Sea
Height
m
Swell
Dir
 
Speed
knots
Gust
knots
hPa Trend Height
m
Period
s
Dir
05/06:30am 25.7 ESE 3 4 1010.8 - 0.0 - - - - - - -
05/06:00am 25.4 ESE 3 3 1010.5 - 0.0 - - - - - - -
05/05:30am 25.6 ESE 2 3 1010.2 - 0.0 - - - - - - -
05/05:00am 25.9 ESE 3 3 1010.1 - 0.0 - - - - - - -
05/04:30am 25.9 ESE 3 3 1010.0 - 0.0 - - - - - - -
05/04:00am 26.1 E 3 4 1010.1 - 0.0 - - - - - - -
05/03:30am 25.9 E 3 4 1010.1 - 0.0 - - - - - - -
05/03:00am 25.7 ENE 3 3 1010.5 - 0.0 - - - - - - -
05/02:30am 25.9 E 3 4 1010.6 - 0.0 - - - - - - -
05/02:00am 25.9 E 3 4 1010.7 - 0.0 - - - - - - -
05/01:30am 26.0 E 3 4 1011.2 - 0.0 - - - - - - -
05/01:00am 26.2 E 4 4 1011.3 - 0.0 - - - - - - -
05/12:30am 26.1 ENE 3 4 1011.6 - 0.0 - - - - - - -
05/12:00am 26.3 ENE 3 4 1011.9 - 0.0 - - - - - - -
 
Date/Time
CST
Temp

°C
Wind Pressure Rain
since 9am
mm
Weather Cloud Vis
km
Sea
Height
m
Swell
Dir
 
Speed
knots
Gust
knots
hPa Trend Height
m
Period
s
Dir
04/11:30pm 26.3 E 4 4 1012.1 - 0.0 - - - - - - -
04/11:00pm 26.6 E 4 4 1012.0 - 0.0 - - - - - - -
04/10:30pm 26.8 E 3 3 1012.2 - 0.0 - - - - - - -
04/10:00pm 26.9 E 3 4 1012.4 - 0.0 - - - - - - -
04/09:30pm 27.1 ENE 2 3 1012.4 - 0.0 - - - - - - -
04/09:00pm 27.5 ENE 2 2 1012.0 - 0.0 - - - - - - -
04/08:30pm 27.5 NE 3 3 1011.7 - 0.0 - - - - - - -
04/08:00pm 27.6 ENE 1 2 1011.4 - 0.0 - - - - - - -
04/07:30pm 27.9 E 2 3 1010.8 - 0.0 - - - - - - -
04/07:00pm 28.1 ENE 3 5 1010.4 - 0.0 - - - - - - -
04/06:30pm 28.3 ENE 5 7 1009.9 - 0.0 - - - - - - -
04/06:00pm 28.5 ENE 4 5 1009.7 - 0.0 - - - - - - -
04/05:30pm 28.8 E 3 4 1009.5 - 0.0 - - - - - - -
04/05:00pm 29.1 E 7 10 1009.1 - 0.0 - - - - - - -
04/04:30pm 29.3 E 6 10 1008.9 - 0.0 - - - - - - -
04/04:00pm 29.3 E 7 10 1008.7 - 0.0 - - - - - - -
04/03:30pm 29.4 E 7 11 1008.7 - 0.0 - - - - - - -
04/03:00pm 29.5 E 8 12 1009.1 - 0.0 - - - - - - -
04/02:30pm 29.6 E 7 11 1009.4 - 0.0 - - - - - - -
04/02:00pm 29.6 E 9 14 1009.7 - 0.0 - - - - - - -
04/01:30pm 29.5 E 10 14 1010.0 - 0.0 - - - - - - -
04/01:00pm 29.4 E 8 13 1010.5 - 0.0 - - - - - - -
04/12:30pm 29.0 E 8 13 1010.8 - 0.0 - - - - - - -
04/12:00pm 28.9 E 7 12 1011.2 - 0.0 - - - - - - -
04/11:30am 28.7 E 8 12 1011.7 - 0.0 - - - - - - -
04/11:00am 27.7 ENE 6 8 1012.2 - 0.0 - - - - - - -
04/10:30am 31.1 SE 6 13 1012.1 - 0.0 - - - - - - -
04/10:00am 32.0 E 10 16 1012.2 - 0.0 - - - - - - -
04/09:30am 31.7 E 11 16 1012.3 - 0.0 - - - - - - -
04/09:00am 31.4 ENE 9 14 1012.0 - 0.0 - - - - - - -
04/08:30am 30.1 E 6 9 1011.9 - 0.0 - - - - - - -
04/08:00am 28.9 E 4 7 1011.8 - 0.0 - - - - - - -
04/07:30am 26.9 E 6 13 1011.6 - 0.0 - - - - - - -
04/07:00am 26.5 SE 6 10 1011.2 - 0.0 - - - - - - -
04/06:30am 26.2 E 3 3 1010.8 - 0.0 - - - - - - -
04/06:00am 26.1 E 2 2 1010.5 - 0.0 - - - - - - -
04/05:30am 26.1 ENE 2 3 1010.2 - 0.0 - - - - - - -
04/05:00am 26.1 NE 1 2 1010.2 - 0.0 - - - - - - -
04/04:30am 25.9 SE 3 4 1010.2 - 0.0 - - - - - - -
04/04:00am 25.6 ENE 4 4 1010.2 - 0.0 - - - - - - -
04/03:30am 26.0 NE 7 12 1010.5 - 0.0 - - - - - - -
04/03:00am 26.1 CALM 0 0 1010.5 - 0.0 - - - - - - -
04/02:30am 26.5 E 1 2 1010.7 - 0.0 - - - - - - -
04/02:00am 26.8 ENE 3 4 1010.7 - 0.0 - - - - - - -
04/01:30am 27.0 ENE 2 3 1011.1 - 0.0 - - - - - - -
04/01:00am 27.1 ENE 2 3 1011.1 - 0.0 - - - - - - -
04/12:30am 27.3 ENE 3 4 1011.4 - 0.0 - - - - - - -
04/12:00am 27.4 ENE 3 5 1011.5 - 0.0 - - - - - - -
 
Date/Time
CST
Temp

°C
Wind Pressure Rain
since 9am
mm
Weather Cloud Vis
km
Sea
Height
m
Swell
Dir
 
Speed
knots
Gust
knots
hPa Trend Height
m
Period
s
Dir
03/11:30pm 27.2 ENE 4 5 1011.5 - 0.0 - - - - - - -
03/11:00pm 27.3 E 4 5 1011.5 - 0.0 - - - - - - -
03/10:30pm 27.1 E 2 3 1011.7 - 0.0 - - - - - - -
03/10:00pm 27.2 ESE 2 3 1011.8 - 0.0 - - - - - - -
03/09:30pm 27.2 ESE 3 5 1011.8 - 0.0 - - - - - - -
03/09:00pm 27.0 E 3 4 1011.6 - 0.0 - - - - - - -
03/08:30pm 26.8 ESE 3 3 1011.4 - 0.0 - - - - - - -
03/08:00pm 27.0 ESE 2 3 1011.3 - 0.0 - - - - - - -
03/07:30pm 27.1 ESE 2 3 1010.9 - 0.0 - - - - - - -
03/07:00pm 27.4 ESE 4 5 1010.5 - 0.0 - - - - - - -
03/06:30pm 27.7 ESE 4 6 1010.3 - 0.0 - - - - - - -
03/06:00pm 28.2 E 4 6 1010.0 - 0.0 - - - - - - -
03/05:30pm 28.5 ENE 6 9 1009.6 - 0.0 - - - - - - -
03/05:00pm 28.9 ENE 5 7 1009.3 - 0.0 - - - - - - -
03/04:30pm 29.4 E 5 7 1009.0 - 0.0 - - - - - - -
03/04:00pm 29.4 E 6 9 1008.9 - 0.0 - - - - - - -
03/03:30pm 29.8 E 7 11 1009.0 - 0.0 - - - - - - -
03/03:00pm 29.4 E 8 11 1009.4 - 0.0 - - - - - - -
03/02:30pm 29.2 ENE 7 10 1009.7 - 0.0 - - - - - - -
03/02:00pm 29.6 E 7 11 1010.0 - 0.0 - - - - - - -
03/01:30pm 30.0 E 7 10 1010.4 - 0.0 - - - - - - -
03/01:00pm 29.2 E 8 11 1010.8 - 0.0 - - - - - - -
03/12:30pm 27.8 E 7 11 1011.3 - 0.0 - - - - - - -
03/12:00pm 28.4 ESE 8 14 1012.0 - 0.0 - - - - - - -
03/11:30am 29.2 ESE 9 14 1012.3 - 0.0 - - - - - - -
03/11:00am 27.8 SE 8 13 1012.7 - 0.0 - - - - - - -
03/10:30am 26.5 ESE 8 12 1012.6 - 0.0 - - - - - - -
03/10:00am 26.0 E 4 6 1012.8 - 0.0 - - - - - - -
03/09:30am 25.9 SE 3 6 1012.8 - 0.0 - - - - - - -
03/09:00am 25.9 E 5 7 1012.5 - 0.0 - - - - - - -
03/08:30am 26.5 ESE 5 7 1012.4 - 0.0 - - - - - - -
03/08:00am 26.4 NE 1 3 1011.8 - 0.0 - - - - - - -
03/07:30am 26.3 SE 3 4 1011.8 - 0.0 - - - - - - -
03/07:00am 25.6 ESE 2 3 1011.5 - 0.0 - - - - - - -
03/06:30am 25.4 ESE 3 3 1011.2 - 0.0 - - - - - - -
03/06:00am 25.6 E 3 3 1010.9 - 0.0 - - - - - - -
03/05:30am 25.5 ENE 3 3 1010.6 - 0.0 - - - - - - -
03/05:00am 25.5 ENE 2 2 1010.4 - 0.0 - - - - - - -
03/04:30am 25.6 CALM 0 2 1010.2 - 0.0 - - - - - - -
03/04:00am 26.1 NE 3 4 1010.6 - 0.0 - - - - - - -
03/03:30am 26.0 E 3 3 1010.5 - 0.0 - - - - - - -
03/03:00am 26.0 E 3 4 1010.6 - 0.0 - - - - - - -
03/02:30am 26.0 ESE 2 3 1010.6 - 0.0 - - - - - - -
03/02:00am 26.0 ESE 2 3 1011.0 - 0.0 - - - - - - -
03/01:30am 26.1 E 2 4 1011.3 - 0.0 - - - - - - -
03/01:00am 26.1 ESE 3 4 1011.6 - 0.0 - - - - - - -
03/12:30am 26.2 ESE 3 4 1011.8 - 0.0 - - - - - - -
03/12:00am 26.2 ESE 2 2 1011.7 - 0.0 - - - - - - -
 
Date/Time
CST
Temp

°C
Wind Pressure Rain
since 9am
mm
Weather Cloud Vis
km
Sea
Height
m
Swell
Dir
 
Speed
knots
Gust
knots
hPa Trend Height
m
Period
s
Dir
02/11:30pm 26.1 CALM 0 0 1011.7 - 0.0 - - - - - - -
02/11:00pm 26.3 CALM 0 0 1012.0 - 0.0 - - - - - - -
02/10:30pm 26.4 CALM 0 1 1012.1 - 0.0 - - - - - - -
02/10:00pm 26.4 E 2 3 1012.3 - 0.0 - - - - - - -
02/09:30pm 26.4 E 3 3 1012.8 - 0.0 - - - - - - -
02/09:00pm 26.4 E 3 3 1012.6 - 0.0 - - - - - - -
02/08:30pm 26.6 ENE 3 3 1012.3 - 0.0 - - - - - - -
02/08:00pm 26.7 CALM 0 0 1011.9 - 0.0 - - - - - - -
02/07:30pm 27.1 E 1 2 1011.4 - 0.0 - - - - - - -
02/07:00pm 27.3 E 2 3 1011.0 - 0.0 - - - - - - -
02/06:30pm 27.6 E 3 4 1010.9 - 0.0 - - - - - - -
02/06:00pm 28.1 ENE 3 5 1010.3 - 0.0 - - - - - - -
02/05:30pm 28.6 NE 4 6 1009.6 - 0.0 - - - - - - -
02/05:00pm 28.8 NE 5 7 1009.1 - 0.0 - - - - - - -
02/04:30pm 29.0 NE 5 7 1009.1 - 0.0 - - - - - - -
02/04:00pm 29.0 NE 6 8 1009.1 - 0.0 - - - - - - -
02/03:30pm 29.0 NNE 6 10 1009.2 - 0.0 - - - - - - -
02/03:00pm 29.0 NE 5 8 1009.5 - 0.0 - - - - - - -
02/02:30pm 28.5 NE 7 13 1009.7 - 0.0 - - - - - - -
02/02:00pm 28.2 NE 7 11 1009.8 - 0.0 - - - - - - -
02/01:30pm 27.9 NE 8 11 1010.0 - 0.0 - - - - - - -
02/01:00pm 27.6 NE 7 10 1010.4 - 0.0 - - - - - - -
02/12:30pm 27.4 ENE 4 6 1011.1 - 0.0 - - - - - - -
02/12:00pm 27.7 NE 5 7 1011.7 - 0.0 - - - - - - -
02/11:30am 28.0 NE 5 7 1012.3 - 0.0 - - - - - - -
02/11:00am 27.5 NE 2 3 1012.4 - 0.0 - - - - - - -
02/10:30am 26.6 ENE 3 4 1012.4 - 0.0 - - - - - - -
02/10:00am 25.7 ENE 5 8 1012.7 - 0.0 - - - - - - -
02/09:30am 25.4 E 5 7 1012.5 - 0.0 - - - - - - -
02/09:00am 25.3 ENE 7 11 1012.3 - 0.0 - - - - - - -
02/08:30am 25.1 NE 9 13 1011.6 - 0.0 - - - - - - -
02/08:00am 25.2 ENE 9 12 1011.5 - 0.0 - - - - - - -
02/07:30am 25.4 ENE 7 9 1011.4 - 0.0 - - - - - - -
02/07:00am 25.0 ENE 5 7 1010.6 - 0.0 - - - - - - -

Other Formats:

Comma delimited format used in spreadsheet applications
http://www.bom.gov.au/fwo/IDD60701/IDD60701.94108.axf

JavaScript Object Notation format (JSON) in row-major order
http://www.bom.gov.au/fwo/IDD60701/IDD60701.94108.json